createdAt,value
2023-03-10T00:02:48.799Z,6.809082
2023-03-10T00:06:13.953Z,6.879578
2023-03-10T00:09:39.140Z,6.889648
2023-03-10T00:13:04.323Z,6.90979
2023-03-10T00:16:29.459Z,6.950073
2023-03-10T00:19:54.659Z,6.970215
2023-03-10T00:23:19.795Z,6.90979
2023-03-10T00:26:44.980Z,6.970215
2023-03-10T00:30:10.171Z,6.980286
2023-03-10T00:33:35.322Z,7.050781
2023-03-10T00:37:00.488Z,6.990356
2023-03-10T00:40:25.635Z,7.03064
2023-03-10T00:43:50.800Z,6.970215
2023-03-10T00:47:16.002Z,7.060852
2023-03-10T00:50:41.153Z,7.050781
2023-03-10T00:54:06.328Z,7.101135
2023-03-10T00:57:31.511Z,7.131348
2023-03-10T01:00:56.699Z,7.151489
2023-03-10T01:04:21.927Z,7.101135
2023-03-10T01:07:47.040Z,7.121277
2023-03-10T01:11:12.253Z,7.121277
2023-03-10T01:14:37.437Z,7.151489
2023-03-10T01:18:02.605Z,7.171631
2023-03-10T01:21:27.820Z,7.131348
2023-03-10T01:24:52.963Z,7.121277
2023-03-10T01:28:18.141Z,7.091064
2023-03-10T01:31:43.410Z,7.070923
2023-03-10T01:35:08.482Z,6.990356
2023-03-10T01:38:33.667Z,6.940002
2023-03-10T01:41:58.815Z,6.950073
2023-03-10T01:45:23.980Z,6.970215
2023-03-10T01:48:49.159Z,6.970215
2023-03-10T01:52:14.324Z,6.980286
2023-03-10T01:55:39.647Z,7.050781
2023-03-10T01:59:04.672Z,6.980286
2023-03-10T02:02:29.906Z,6.990356
2023-03-10T02:05:55.000Z,6.970215
2023-03-10T02:09:20.150Z,6.919861
2023-03-10T02:12:45.340Z,6.940002
2023-03-10T02:16:10.522Z,6.90979
2023-03-10T02:19:35.735Z,6.869507
2023-03-10T02:23:00.826Z,6.879578
2023-03-10T02:26:25.978Z,6.869507
2023-03-10T02:29:59.092Z,6.809082
2023-03-10T02:33:16.308Z,6.839294
2023-03-10T02:36:41.460Z,6.809082
2023-03-10T02:40:06.631Z,6.869507
2023-03-10T02:43:31.794Z,6.889648
2023-03-10T02:46:57.016Z,6.980286
2023-03-10T02:50:22.142Z,7.060852
2023-03-10T02:53:47.275Z,7.101135
2023-03-10T02:57:12.449Z,7.050781
2023-03-10T03:00:37.621Z,7.101135
2023-03-10T03:04:02.875Z,7.101135
2023-03-10T03:07:27.983Z,7.131348
2023-03-10T03:10:53.158Z,7.121277
2023-03-10T03:14:19.546Z,7.121277
2023-03-10T03:17:43.491Z,7.091064
2023-03-10T03:21:08.672Z,7.091064
2023-03-10T03:24:33.787Z,7.131348
2023-03-10T03:27:58.942Z,7.16156
2023-03-10T03:31:24.214Z,7.171631
2023-03-10T03:34:49.261Z,7.16156
2023-03-10T03:38:14.432Z,7.242126
2023-03-10T03:41:39.564Z,7.232056
2023-03-10T03:45:04.752Z,7.252197
2023-03-10T03:48:29.957Z,7.28241
2023-03-10T03:51:55.118Z,7.252197
2023-03-10T03:55:20.282Z,7.272339
2023-03-10T03:58:45.424Z,7.322693
2023-03-10T04:02:10.664Z,7.28241
2023-03-10T04:05:35.785Z,7.342834
2023-03-10T04:09:00.893Z,7.342834
2023-03-10T04:12:26.075Z,7.322693
2023-03-10T04:15:51.223Z,7.312622
2023-03-10T04:19:16.330Z,7.312622
2023-03-10T04:22:41.499Z,7.312622
2023-03-10T04:26:06.685Z,7.252197
2023-03-10T04:29:31.837Z,7.272339
2023-03-10T04:32:57.094Z,7.252197
2023-03-10T04:36:22.153Z,7.272339
2023-03-10T04:39:47.293Z,7.232056
2023-03-10T04:43:12.455Z,7.201843
2023-03-10T04:46:37.628Z,7.232056
2023-03-10T04:50:02.730Z,7.232056
2023-03-10T04:53:27.898Z,7.211914
2023-03-10T04:56:53.035Z,7.171631
2023-03-10T05:00:18.197Z,7.201843
2023-03-10T05:03:43.366Z,7.201843
2023-03-10T05:07:08.527Z,7.16156
2023-03-10T05:10:33.666Z,7.171631
2023-03-10T05:13:58.841Z,7.151489
2023-03-10T05:17:23.986Z,7.16156
2023-03-10T05:20:49.155Z,7.070923
2023-03-10T05:24:14.280Z,7.16156
2023-03-10T05:27:39.417Z,7.16156
2023-03-10T05:31:04.610Z,7.232056
2023-03-10T05:34:29.735Z,7.232056
2023-03-10T05:37:54.931Z,7.252197
2023-03-10T05:41:20.081Z,7.242126
2023-03-10T05:44:45.287Z,7.242126
2023-03-10T05:48:10.448Z,7.171631
2023-03-10T05:51:35.607Z,7.131348
2023-03-10T05:55:00.786Z,7.171631
2023-03-10T05:58:25.941Z,7.151489
2023-03-10T06:01:51.087Z,7.131348
2023-03-10T06:05:16.222Z,7.121277
2023-03-10T06:08:41.376Z,7.201843
2023-03-10T06:12:06.553Z,7.211914
2023-03-10T06:15:31.705Z,7.242126
2023-03-10T06:18:56.897Z,7.242126
2023-03-10T06:22:22.050Z,7.302551
2023-03-10T06:25:47.206Z,7.322693
2023-03-10T06:29:12.393Z,7.373047
2023-03-10T06:32:37.537Z,7.373047
2023-03-10T06:36:02.751Z,7.423401
2023-03-10T06:39:27.956Z,7.403259
2023-03-10T06:42:53.026Z,7.433472
2023-03-10T06:46:18.355Z,7.483826
2023-03-10T06:49:43.396Z,7.53418
2023-03-10T06:53:08.597Z,7.503967
2023-03-10T06:56:33.767Z,7.524109
2023-03-10T06:59:58.908Z,7.574463
2023-03-10T07:03:24.138Z,7.745667
2023-03-10T07:06:49.216Z,7.886658
2023-03-10T07:10:14.365Z,8.03772
2023-03-10T07:13:39.515Z,8.03772
2023-03-10T07:17:04.744Z,8.078003
2023-03-10T07:20:29.929Z,8.148499
2023-03-10T07:23:55.033Z,8.249207
2023-03-10T07:27:20.196Z,8.108215
2023-03-10T07:30:45.461Z,7.886658
2023-03-10T07:34:10.494Z,7.78595
2023-03-10T07:37:35.813Z,7.765808
2023-03-10T07:41:02.007Z,7.78595
2023-03-10T07:44:25.954Z,7.705383
2023-03-10T07:47:51.100Z,7.675171
2023-03-10T07:51:16.233Z,7.614746
2023-03-10T07:54:41.448Z,7.554321
2023-03-10T07:58:06.540Z,7.634888
2023-03-10T08:01:31.678Z,7.735596
2023-03-10T08:04:56.896Z,7.796021
2023-03-10T08:08:22.037Z,7.856445
2023-03-10T08:11:47.234Z,7.977295
2023-03-10T08:15:12.363Z,8.03772
2023-03-10T08:18:37.965Z,8.078003
2023-03-10T08:22:02.734Z,8.098145
2023-03-10T08:25:27.892Z,8.118286
2023-03-10T08:28:53.102Z,8.218994
2023-03-10T08:32:18.284Z,8.299561
2023-03-10T08:35:43.430Z,8.359985
2023-03-10T08:39:08.564Z,8.359985
2023-03-10T08:42:33.713Z,8.359985
2023-03-10T08:45:58.960Z,8.370056
2023-03-10T08:49:24.045Z,8.329773
2023-03-10T08:52:49.185Z,8.329773
2023-03-10T08:56:14.345Z,8.28949
2023-03-10T08:59:39.572Z,8.359985
2023-03-10T09:03:04.817Z,8.359985
2023-03-10T09:06:29.815Z,8.450623
2023-03-10T09:09:54.977Z,8.521118
2023-03-10T09:13:20.155Z,8.732605
2023-03-10T09:16:45.341Z,8.813171
2023-03-10T09:20:10.577Z,8.833313
2023-03-10T09:23:35.739Z,8.873596
2023-03-10T09:27:00.867Z,8.843384
2023-03-10T09:30:26.032Z,8.843384
2023-03-10T09:33:51.201Z,8.742676
2023-03-10T09:37:16.385Z,8.631897
2023-03-10T09:40:41.535Z,8.662109
2023-03-10T09:44:06.693Z,8.682251
2023-03-10T09:47:31.852Z,8.682251
2023-03-10T09:50:57.001Z,8.762817
2023-03-10T09:54:22.192Z,8.79303
2023-03-10T09:57:47.321Z,8.762817
2023-03-10T10:01:12.462Z,8.79303
2023-03-10T10:04:37.771Z,8.863525
2023-03-10T10:08:02.790Z,8.92395
2023-03-10T10:11:27.985Z,8.944092
2023-03-10T10:14:57.373Z,8.954163
2023-03-10T10:18:20.796Z,9.014587
2023-03-10T10:21:43.500Z,9.095154
2023-03-10T10:25:08.743Z,9.17572
2023-03-10T10:28:33.766Z,9.256287
2023-03-10T10:31:58.892Z,9.316711
2023-03-10T10:35:24.043Z,9.397278
2023-03-10T10:38:49.205Z,9.528198
2023-03-10T10:42:14.368Z,9.709473
2023-03-10T10:45:39.566Z,9.759827
2023-03-10T10:49:05.460Z,9.830322
2023-03-10T10:52:30.636Z,9.890747
2023-03-10T10:55:55.761Z,9.890747
2023-03-10T10:59:20.922Z,9.810181
2023-03-10T11:02:46.205Z,9.810181
2023-03-10T11:06:11.254Z,9.840393
2023-03-10T11:09:36.388Z,9.93103
2023-03-10T11:13:01.595Z,10.021667
2023-03-10T11:16:26.744Z,10.223083
2023-03-10T11:19:52.013Z,10.454712
2023-03-10T11:23:17.139Z,10.666199
2023-03-10T11:26:42.319Z,10.736694
2023-03-10T11:30:07.455Z,10.656128
2023-03-10T11:33:32.601Z,10.384216
2023-03-10T11:36:57.796Z,10.343933
2023-03-10T11:40:23.131Z,10.273438
2023-03-10T11:43:48.272Z,10.233154
2023-03-10T11:47:13.428Z,10.112305
2023-03-10T11:50:38.623Z,9.991455
2023-03-10T11:54:03.882Z,9.528198
2023-03-10T11:57:28.995Z,8.873596
2023-03-10T12:00:54.162Z,8.359985
2023-03-10T12:04:19.315Z,7.846375
2023-03-10T12:07:44.485Z,7.574463
2023-03-10T12:11:10.160Z,7.503967
2023-03-10T12:14:35.502Z,7.524109
2023-03-10T12:18:01.448Z,7.574463
2023-03-10T12:21:26.843Z,7.685242
2023-03-10T12:24:52.240Z,7.78595
2023-03-10T12:28:17.651Z,7.926941
2023-03-10T12:31:42.987Z,8.118286
2023-03-10T12:35:08.332Z,8.118286
2023-03-10T12:38:33.717Z,8.108215
2023-03-10T12:41:59.069Z,8.047791
2023-03-10T12:45:24.955Z,7.977295
2023-03-10T12:48:50.473Z,7.856445
2023-03-10T12:52:15.867Z,7.826233
2023-03-10T12:55:41.222Z,7.826233
2023-03-10T12:59:06.543Z,7.866516
2023-03-10T13:02:33.771Z,8.007507
2023-03-10T13:05:57.327Z,8.098145
2023-03-10T13:09:22.721Z,8.148499
2023-03-10T13:12:48.164Z,8.299561
2023-03-10T13:16:13.550Z,8.279419
2023-03-10T13:19:39.011Z,8.249207
2023-03-10T13:23:04.289Z,8.299561
2023-03-10T13:26:29.579Z,8.329773
2023-03-10T13:29:54.932Z,8.158569
2023-03-10T13:33:20.385Z,8.098145
2023-03-10T13:36:45.761Z,7.926941
2023-03-10T13:40:11.133Z,7.926941
2023-03-10T13:43:36.489Z,7.926941
2023-03-10T13:47:01.840Z,7.866516
2023-03-10T13:50:27.222Z,7.735596
2023-03-10T13:53:52.732Z,7.816162
2023-03-10T13:57:17.991Z,7.856445
2023-03-10T14:00:43.926Z,7.866516
2023-03-10T14:04:09.641Z,7.846375
2023-03-10T14:07:42.940Z,7.856445
2023-03-10T14:11:11.478Z,7.856445
2023-03-10T14:14:36.913Z,7.947083
2023-03-10T14:18:02.273Z,7.967224
2023-03-10T14:21:27.600Z,7.977295
2023-03-10T14:24:52.994Z,7.997437
2023-03-10T15:04:48.237Z,7.816162
2023-03-10T15:08:14.305Z,7.644958
2023-03-10T15:11:40.427Z,7.503967
2023-03-10T15:15:06.605Z,7.433472
2023-03-10T15:18:33.064Z,7.312622
2023-03-10T15:21:59.147Z,7.252197
2023-03-10T15:25:25.254Z,7.322693
2023-03-10T15:28:51.313Z,7.352905
2023-03-10T15:32:17.465Z,7.242126
2023-03-10T15:35:43.619Z,7.252197
2023-03-10T15:39:11.054Z,7.151489
2023-03-10T15:42:37.904Z,7.232056
2023-03-10T15:46:37.822Z,7.211914
2023-03-10T15:50:03.867Z,7.201843
2023-03-10T15:53:29.867Z,7.151489
2023-03-10T15:56:56.013Z,7.171631
2023-03-10T16:00:22.162Z,7.121277
2023-03-10T16:03:48.192Z,7.060852
2023-03-10T16:07:14.060Z,7.060852
2023-03-10T16:10:39.256Z,7.050781
2023-03-10T16:14:04.499Z,6.990356
2023-03-10T16:17:29.639Z,6.919861
2023-03-10T16:20:54.842Z,7.020569
2023-03-10T16:24:20.053Z,7.070923
2023-03-10T16:27:45.239Z,7.060852
2023-03-10T16:31:10.533Z,6.980286
2023-03-10T16:34:35.660Z,6.980286
2023-03-10T16:38:00.836Z,6.980286
2023-03-10T16:41:27.372Z,6.980286
2023-03-10T16:44:51.284Z,6.889648
2023-03-10T16:48:16.469Z,6.849365
2023-03-10T16:51:41.644Z,6.90979
2023-03-10T16:55:07.113Z,6.970215
2023-03-10T16:58:32.543Z,6.970215
2023-03-10T17:01:58.052Z,6.919861
2023-03-10T17:05:23.270Z,6.849365
2023-03-10T17:08:48.442Z,6.809082
2023-03-10T17:12:13.645Z,6.758728
2023-03-10T17:15:38.858Z,6.758728
2023-03-10T17:19:04.043Z,6.728516
2023-03-10T17:22:29.265Z,6.78894
2023-03-10T17:25:54.569Z,6.688232
2023-03-10T17:29:19.645Z,6.637878
2023-03-10T17:32:44.994Z,6.637878
2023-03-10T17:36:10.288Z,6.668091
2023-03-10T17:39:35.593Z,6.637878
2023-03-10T17:43:13.083Z,6.617737
2023-03-10T17:46:26.261Z,6.607666
2023-03-10T17:49:52.403Z,6.517029
2023-03-10T17:53:17.736Z,6.40625
2023-03-10T17:56:43.078Z,6.476746
2023-03-10T18:00:08.355Z,6.456604
2023-03-10T18:03:33.615Z,6.27533
2023-03-10T18:06:58.872Z,6.27533
2023-03-10T18:10:24.154Z,6.194763
2023-03-10T18:13:49.504Z,6.094055
2023-03-10T18:17:14.793Z,6.063843
2023-03-10T18:20:40.041Z,5.963135
2023-03-10T18:24:05.313Z,5.993347
2023-03-10T18:27:30.569Z,5.973206
2023-03-10T18:30:55.938Z,5.942993
2023-03-10T18:34:21.191Z,5.791931
2023-03-10T18:37:46.479Z,5.78186
2023-03-10T18:41:11.773Z,5.751648
2023-03-10T18:44:37.054Z,5.65094
2023-03-10T18:48:02.433Z,5.630798
2023-03-10T18:51:27.734Z,5.53009
2023-03-10T18:54:53.084Z,5.479736
2023-03-10T18:58:18.360Z,5.379028
2023-03-10T19:01:43.713Z,5.389099
2023-03-10T19:05:08.989Z,5.348816
2023-03-10T19:08:34.296Z,5.27832
2023-03-10T19:11:59.586Z,5.207825
2023-03-10T19:15:24.901Z,5.016479
2023-03-10T19:18:50.171Z,5.086975
2023-03-10T19:22:15.485Z,5.056763
2023-03-10T19:25:40.749Z,5.02655
2023-03-10T19:29:06.000Z,5.02655
2023-03-10T19:32:31.353Z,5.066833
2023-03-10T19:35:56.683Z,4.996338
2023-03-10T19:39:21.974Z,5.02655
2023-03-10T19:42:47.226Z,4.956055
2023-03-10T19:46:12.571Z,4.956055
2023-03-10T19:49:37.794Z,4.835205
2023-03-10T19:53:03.101Z,4.704285
2023-03-10T19:56:28.440Z,4.815063
2023-03-10T19:59:53.727Z,4.704285
2023-03-10T20:03:18.985Z,4.653931
2023-03-10T20:06:44.260Z,4.694214
2023-03-10T20:10:09.573Z,4.623718
2023-03-10T20:13:34.862Z,4.623718
2023-03-10T20:17:00.164Z,4.603577
2023-03-10T20:20:25.448Z,4.553223
2023-03-10T20:23:50.758Z,4.52301
2023-03-10T20:27:16.058Z,4.623718
2023-03-10T20:30:41.416Z,4.543152
2023-03-10T20:34:06.689Z,4.472656
2023-03-10T20:37:31.954Z,4.442444
2023-03-10T20:40:57.215Z,4.402161
2023-03-10T20:44:22.517Z,4.412231
2023-03-10T20:47:47.816Z,4.331665
2023-03-10T20:51:14.828Z,4.321594
2023-03-10T20:54:38.407Z,4.301453
2023-03-10T20:58:03.686Z,4.14032
2023-03-10T21:01:29.080Z,4.110107
2023-03-10T21:04:54.358Z,4.01947
2023-03-10T21:08:19.623Z,4.049683
2023-03-10T21:11:44.962Z,4.14032
2023-03-10T21:15:10.267Z,4.049683
2023-03-10T21:18:35.539Z,3.969116
2023-03-10T21:22:03.235Z,3.959045
2023-03-10T21:25:26.108Z,3.928833
2023-03-10T21:28:51.412Z,3.727417
2023-03-10T21:32:16.843Z,3.656921
2023-03-10T21:35:42.103Z,3.566284
2023-03-10T21:39:07.376Z,3.51593
2023-03-10T21:42:32.565Z,3.505859
2023-03-10T21:45:57.954Z,3.143311
2023-03-10T21:49:23.104Z,3.13324
2023-03-10T21:52:48.411Z,3.113098
2023-03-10T21:56:13.632Z,3.002319
2023-03-10T21:59:38.846Z,2.609558
2023-03-10T22:03:04.116Z,2.559204
2023-03-10T22:06:29.345Z,2.388
2023-03-10T22:09:54.615Z,2.277222
2023-03-10T22:13:19.890Z,2.116089
2023-03-10T22:16:45.115Z,2.055664
2023-03-10T22:20:10.358Z,2.196655
2023-03-10T22:23:35.591Z,2.085876
2023-03-10T22:27:00.834Z,2.045593
2023-03-10T22:30:26.107Z,1.975098
2023-03-10T22:33:51.346Z,2.015381
2023-03-10T22:37:16.536Z,1.934814
2023-03-10T22:40:41.744Z,2.015381
2023-03-10T22:44:06.987Z,1.954956
2023-03-10T22:47:32.232Z,1.703186
2023-03-10T22:50:57.445Z,1.662903
2023-03-10T22:54:22.661Z,1.602478
2023-03-10T22:57:47.859Z,1.511841
2023-03-10T23:01:13.109Z,1.511841
2023-03-10T23:04:38.358Z,1.50177
2023-03-10T23:08:03.567Z,1.37085
2023-03-10T23:11:28.816Z,1.229858
2023-03-10T23:14:54.052Z,1.139221
2023-03-10T23:18:19.292Z,1.088867
2023-03-10T23:21:44.528Z,0.937805
2023-03-10T23:25:09.725Z,0.86731
2023-03-10T23:28:34.960Z,0.957947
2023-03-10T23:32:00.177Z,0.957947
2023-03-10T23:35:25.405Z,0.968018
2023-03-10T23:38:50.683Z,0.837097
2023-03-10T23:42:15.881Z,0.897522
2023-03-10T23:45:41.127Z,1.048584
2023-03-10T23:49:06.317Z,1.199646
2023-03-10T23:52:31.543Z,1.290283
2023-03-10T23:55:56.806Z,1.048584
2023-03-10T23:59:21.998Z,1.058655
